createdAt,value
2023-03-12T00:01:53.253Z,56.70
2023-03-12T00:04:55.927Z,56.70
2023-03-12T00:08:00.151Z,57.55
2023-03-12T00:11:06.653Z,56.63
2023-03-12T00:14:08.512Z,56.69
2023-03-12T00:17:11.617Z,56.34
2023-03-12T00:20:14.568Z,56.43
2023-03-12T00:23:17.257Z,55.87
2023-03-12T00:26:20.543Z,55.81
2023-03-12T00:29:22.550Z,56.44
2023-03-12T00:32:25.065Z,55.14
2023-03-12T00:35:27.091Z,55.00
2023-03-12T00:38:29.418Z,54.55
2023-03-12T00:41:32.194Z,54.20
2023-03-12T00:44:35.465Z,54.09
2023-03-12T00:47:37.420Z,53.47
2023-03-12T00:50:39.556Z,53.29
2023-03-12T00:53:41.482Z,52.67
2023-03-12T00:56:43.674Z,53.08
2023-03-12T00:59:45.833Z,53.02
2023-03-12T01:02:50.631Z,52.22
2023-03-12T01:05:57.447Z,51.87
2023-03-12T01:09:02.104Z,52.83
2023-03-12T01:12:04.376Z,52.85
2023-03-12T01:15:08.602Z,53.20
2023-03-12T01:18:10.865Z,53.55
2023-03-12T01:21:13.591Z,53.91
2023-03-12T01:24:16.043Z,53.93
2023-03-12T01:27:18.861Z,53.59
2023-03-12T01:30:24.783Z,53.54
2023-03-12T01:33:27.136Z,52.26
2023-03-12T01:36:31.322Z,52.49
2023-03-12T01:39:33.496Z,52.88
2023-03-12T01:42:35.358Z,52.67
2023-03-12T01:46:03.743Z,52.41
2023-03-12T01:49:20.038Z,52.54
2023-03-12T01:52:31.223Z,52.03
2023-03-12T01:55:33.350Z,51.88
2023-03-12T01:58:40.423Z,52.56
2023-03-12T02:01:45.122Z,52.41
2023-03-12T02:04:47.852Z,52.38
2023-03-12T02:07:51.272Z,52.08
2023-03-12T02:10:53.475Z,52.17
2023-03-12T02:13:55.622Z,52.24
2023-03-12T02:16:58.030Z,52.14
2023-03-12T02:20:25.930Z,52.96
2023-03-12T02:23:35.759Z,53.62
2023-03-12T02:26:40.091Z,53.35
2023-03-12T02:29:44.731Z,53.91
2023-03-12T02:32:50.633Z,53.91
2023-03-12T02:35:56.886Z,54.99
2023-03-12T02:39:00.520Z,54.51
2023-03-12T02:42:02.905Z,54.25
2023-03-12T02:45:08.080Z,55.69
2023-03-12T02:48:11.105Z,55.78
2023-03-12T02:51:13.344Z,57.04
2023-03-12T02:54:17.733Z,57.93
2023-03-12T02:57:22.534Z,58.13
2023-03-12T03:00:25.405Z,58.36
2023-03-12T03:03:28.101Z,58.36
2023-03-12T03:06:31.067Z,57.93
2023-03-12T03:09:33.099Z,58.26
2023-03-12T03:12:36.478Z,57.57
2023-03-12T03:15:39.479Z,57.63
2023-03-12T03:18:41.600Z,59.58
2023-03-12T03:21:43.975Z,59.33
2023-03-12T03:24:46.107Z,60.45
2023-03-12T03:27:48.072Z,60.08
2023-03-12T03:30:58.212Z,60.44
2023-03-12T03:34:00.866Z,60.98
2023-03-12T03:37:02.890Z,60.72
2023-03-12T03:40:06.755Z,59.80
2023-03-12T03:43:11.346Z,59.53
2023-03-12T03:46:16.669Z,60.13
2023-03-12T03:49:18.583Z,59.70
2023-03-12T03:52:20.537Z,60.70
2023-03-12T03:55:22.845Z,61.47
2023-03-12T03:58:27.306Z,61.43
2023-03-12T04:01:31.524Z,62.06
2023-03-12T04:04:33.597Z,62.71
2023-03-12T04:07:35.480Z,62.74
2023-03-12T04:10:37.789Z,62.87
2023-03-12T04:13:39.907Z,62.86
2023-03-12T04:16:42.184Z,62.92
2023-03-12T04:19:44.219Z,62.75
2023-03-12T04:22:47.302Z,63.39
2023-03-12T04:25:49.786Z,63.55
2023-03-12T04:28:53.438Z,63.55
2023-03-12T04:31:56.824Z,63.09
2023-03-12T04:34:59.621Z,63.20
2023-03-12T04:38:02.466Z,62.69
2023-03-12T04:41:14.663Z,62.54
2023-03-12T04:44:16.800Z,63.08
2023-03-12T04:47:20.513Z,62.65
2023-03-12T04:50:23.575Z,61.38
2023-03-12T04:53:25.949Z,61.68
2023-03-12T04:56:28.700Z,61.24
2023-03-12T04:59:31.102Z,61.94
2023-03-12T05:02:33.932Z,62.54
2023-03-12T05:05:36.041Z,63.39
2023-03-12T05:08:38.139Z,63.53
2023-03-12T05:11:41.621Z,64.08
2023-03-12T05:14:43.792Z,64.78
2023-03-12T05:17:49.139Z,65.84
2023-03-12T05:21:02.822Z,66.15
2023-03-12T05:24:05.620Z,66.50
2023-03-12T05:27:08.559Z,66.63
2023-03-12T05:30:14.007Z,66.63
2023-03-12T05:33:16.178Z,66.32
2023-03-12T05:36:19.213Z,66.63
2023-03-12T05:39:22.714Z,67.01
2023-03-12T05:42:26.011Z,66.63
2023-03-12T05:45:28.005Z,66.68
2023-03-12T05:48:33.164Z,66.12
2023-03-12T05:51:35.610Z,65.76
2023-03-12T05:54:37.816Z,65.57
2023-03-12T05:57:42.145Z,65.36
2023-03-12T06:00:45.145Z,65.35
2023-03-12T06:03:47.816Z,65.44
2023-03-12T06:06:50.034Z,65.00
2023-03-12T06:10:00.620Z,64.90
2023-03-12T06:13:03.238Z,63.23
2023-03-12T06:16:12.810Z,63.63
2023-03-12T06:19:15.776Z,63.74
2023-03-12T06:22:17.670Z,60.95
2023-03-12T06:25:19.623Z,54.35
2023-03-12T06:28:21.732Z,52.16
2023-03-12T06:31:24.818Z,57.74
2023-03-12T06:34:27.052Z,59.88
2023-03-12T06:37:29.172Z,59.80
2023-03-12T06:40:31.574Z,60.80
2023-03-12T06:43:35.813Z,60.07
2023-03-12T06:46:38.750Z,60.55
2023-03-12T06:49:41.158Z,59.77
2023-03-12T06:52:43.467Z,59.31
2023-03-12T06:55:46.542Z,53.90
2023-03-12T06:58:50.276Z,51.84
2023-03-12T07:01:52.787Z,54.92
2023-03-12T07:04:55.085Z,57.23
2023-03-12T07:08:00.431Z,57.54
2023-03-12T07:11:02.841Z,57.04
2023-03-12T07:14:05.018Z,57.18
2023-03-12T07:17:07.294Z,57.29
2023-03-12T07:20:10.025Z,57.34
2023-03-12T07:23:12.689Z,57.53
2023-03-12T07:26:14.862Z,57.51
2023-03-12T07:29:16.891Z,56.65
2023-03-12T07:32:19.280Z,55.84
2023-03-12T07:35:22.600Z,56.66
2023-03-12T07:38:25.050Z,55.99
2023-03-12T07:41:27.205Z,55.98
2023-03-12T07:44:29.644Z,55.61
2023-03-12T07:47:31.689Z,56.06
2023-03-12T07:50:36.777Z,54.73
2023-03-12T07:53:41.002Z,54.74
2023-03-12T07:56:44.732Z,53.74
2023-03-12T07:59:48.233Z,53.99
2023-03-12T08:02:50.674Z,54.25
2023-03-12T08:05:58.719Z,53.63
2023-03-12T08:09:00.957Z,53.95
2023-03-12T08:12:03.108Z,53.60
2023-03-12T08:15:12.752Z,52.49
2023-03-12T08:18:14.814Z,52.99
2023-03-12T08:21:18.301Z,52.38
2023-03-12T08:24:21.889Z,52.01
2023-03-12T08:27:25.067Z,51.66
2023-03-12T08:30:30.283Z,51.74
2023-03-12T08:33:34.178Z,51.64
2023-03-12T08:36:37.462Z,51.25
2023-03-12T08:39:39.514Z,51.17
2023-03-12T08:42:43.839Z,51.26
2023-03-12T08:45:47.570Z,50.95
2023-03-12T08:48:49.741Z,49.76
2023-03-12T08:51:52.118Z,49.53
2023-03-12T08:54:54.270Z,50.33
2023-03-12T08:57:57.603Z,50.42
2023-03-12T09:00:59.688Z,48.32
2023-03-12T09:04:03.813Z,47.89
2023-03-12T09:07:06.276Z,47.41
2023-03-12T09:10:09.545Z,48.50
2023-03-12T09:13:12.541Z,47.27
2023-03-12T09:16:15.418Z,46.34
2023-03-12T09:19:17.497Z,47.36
2023-03-12T09:22:19.512Z,46.62
2023-03-12T09:25:25.875Z,46.30
2023-03-12T09:28:29.017Z,45.92
2023-03-12T09:31:31.676Z,46.03
2023-03-12T09:34:35.896Z,45.58
2023-03-12T09:37:37.951Z,46.10
2023-03-12T09:40:43.405Z,46.08
2023-03-12T09:43:54.555Z,44.85
2023-03-12T09:47:01.598Z,44.82
2023-03-12T09:50:19.594Z,44.29
2023-03-12T09:53:41.437Z,44.33
2023-03-12T09:56:46.324Z,44.07
2023-03-12T09:59:48.492Z,44.41
2023-03-12T10:03:09.700Z,43.51
2023-03-12T10:06:20.613Z,42.98
2023-03-12T10:09:39.251Z,42.74
2023-03-12T10:13:16.299Z,41.68
2023-03-12T10:16:30.205Z,42.47
2023-03-12T10:19:38.422Z,42.50
2023-03-12T10:22:54.415Z,41.66
2023-03-12T10:25:56.198Z,40.91
2023-03-12T10:29:10.266Z,41.39
2023-03-12T10:32:19.741Z,41.56
2023-03-12T10:35:27.645Z,40.33
2023-03-12T10:38:32.149Z,40.02
2023-03-12T10:41:35.104Z,41.22
2023-03-12T10:44:37.281Z,41.56
2023-03-12T10:47:52.662Z,40.95
2023-03-12T10:51:11.365Z,39.54
2023-03-12T10:54:34.182Z,40.57
2023-03-12T10:58:16.851Z,39.28
2023-03-12T11:01:26.246Z,38.58
2023-03-12T11:04:32.708Z,38.53
2023-03-12T11:07:35.656Z,37.26
2023-03-12T11:10:47.887Z,36.40
2023-03-12T11:14:07.064Z,34.68
2023-03-12T11:17:24.883Z,34.41
2023-03-12T11:20:28.568Z,32.74
2023-03-12T11:23:31.929Z,30.66
2023-03-12T11:26:51.271Z,29.99
2023-03-12T11:29:54.844Z,27.55
2023-03-12T11:32:58.480Z,26.34
2023-03-12T11:36:24.427Z,24.99
2023-03-12T11:39:57.645Z,25.90
2023-03-12T11:43:42.032Z,27.10
2023-03-12T11:47:11.960Z,24.73
2023-03-12T11:50:37.127Z,24.52
2023-03-12T11:54:20.207Z,24.99
2023-03-12T11:57:41.958Z,23.83
2023-03-12T12:01:20.947Z,25.21
2023-03-12T12:04:44.607Z,24.46
2023-03-12T12:07:47.472Z,24.22
2023-03-12T12:11:11.527Z,22.72
2023-03-12T12:14:41.109Z,20.61
2023-03-12T12:17:57.168Z,21.29
2023-03-12T12:21:23.263Z,22.14
2023-03-12T12:24:34.523Z,22.27
2023-03-12T12:27:55.955Z,22.65
2023-03-12T12:31:33.954Z,22.34
2023-03-12T12:34:45.661Z,22.56
2023-03-12T12:38:03.001Z,21.90
2023-03-12T12:41:08.112Z,22.97
2023-03-12T12:44:18.728Z,22.55
2023-03-12T12:47:32.796Z,21.57
2023-03-12T12:50:42.585Z,21.76
2023-03-12T12:54:23.422Z,22.30
2023-03-12T12:57:41.682Z,22.44
2023-03-12T13:00:55.629Z,23.01
2023-03-12T13:04:15.034Z,22.71
2023-03-12T13:07:34.377Z,21.96
2023-03-12T13:10:48.683Z,22.09
2023-03-12T13:14:02.920Z,22.78
2023-03-12T13:17:27.490Z,22.31
2023-03-12T13:20:42.150Z,22.77
2023-03-12T13:23:52.060Z,22.74
2023-03-12T13:27:12.389Z,21.66
2023-03-12T13:30:33.642Z,21.63
2023-03-12T13:33:54.245Z,22.23
2023-03-12T13:37:01.915Z,22.70
2023-03-12T13:40:29.740Z,23.46
2023-03-12T13:43:38.204Z,22.53
2023-03-12T13:46:42.469Z,22.51
2023-03-12T13:50:00.697Z,23.67
2023-03-12T13:53:23.672Z,24.44
2023-03-12T13:56:32.772Z,24.29
2023-03-12T13:59:34.818Z,24.39
2023-03-12T14:02:45.820Z,23.73
2023-03-12T14:05:53.975Z,23.46
2023-03-12T14:09:05.691Z,23.36
2023-03-12T14:12:33.610Z,23.27
2023-03-12T14:15:57.662Z,23.43
2023-03-12T14:19:03.876Z,23.26
2023-03-12T14:22:08.751Z,22.83
2023-03-12T14:25:38.985Z,22.60
2023-03-12T14:28:42.289Z,22.28
2023-03-12T14:31:45.599Z,23.06
2023-03-12T14:35:09.803Z,22.15
2023-03-12T14:38:32.271Z,21.88
2023-03-12T14:41:43.204Z,21.55
2023-03-12T14:44:55.354Z,20.57
2023-03-12T14:47:59.146Z,19.72
2023-03-12T14:51:02.568Z,19.43
2023-03-12T14:54:05.135Z,20.32
2023-03-12T14:57:15.601Z,22.02
2023-03-12T15:00:25.367Z,21.98
2023-03-12T15:03:30.749Z,21.29
2023-03-12T15:06:37.485Z,22.39
2023-03-12T15:09:43.500Z,24.13
2023-03-12T15:12:46.910Z,23.78
2023-03-12T15:15:52.378Z,24.61
2023-03-12T15:18:55.083Z,24.65
2023-03-12T15:21:57.534Z,24.75
2023-03-12T15:25:14.846Z,24.84
2023-03-12T15:28:18.728Z,24.95
2023-03-12T15:31:21.080Z,24.68
2023-03-12T15:34:36.042Z,25.26
2023-03-12T15:37:43.256Z,25.04
2023-03-12T15:40:51.502Z,25.30
2023-03-12T15:43:57.693Z,25.98
2023-03-12T15:47:14.968Z,26.23
2023-03-12T15:50:25.388Z,25.38
2023-03-12T15:53:33.608Z,25.54
2023-03-12T15:56:37.010Z,25.37
2023-03-12T15:59:41.273Z,24.81
2023-03-12T16:02:53.494Z,24.31
2023-03-12T16:05:57.381Z,24.25
2023-03-12T16:09:03.743Z,24.55
2023-03-12T16:12:06.289Z,24.34
2023-03-12T16:15:14.296Z,25.02
2023-03-12T16:18:19.800Z,25.18
2023-03-12T16:21:21.706Z,25.03
2023-03-12T16:24:23.920Z,25.16
2023-03-12T16:27:32.574Z,25.19
2023-03-12T16:30:36.897Z,25.62
2023-03-12T16:33:39.747Z,25.30
2023-03-12T16:36:42.558Z,25.57
2023-03-12T16:39:48.347Z,25.94
2023-03-12T16:42:54.074Z,26.24
2023-03-12T16:45:58.031Z,26.63
2023-03-12T16:49:01.064Z,26.51
2023-03-12T16:52:13.477Z,26.24
2023-03-12T16:55:16.236Z,27.46
2023-03-12T16:58:21.148Z,27.08
2023-03-12T17:01:26.825Z,27.26
2023-03-12T17:04:29.032Z,26.82
2023-03-12T17:07:31.218Z,26.96
2023-03-12T17:10:34.784Z,27.51
2023-03-12T17:13:37.104Z,27.54
2023-03-12T17:16:40.887Z,27.49
2023-03-12T17:19:43.505Z,28.23
2023-03-12T17:22:46.266Z,28.29
2023-03-12T17:25:49.104Z,29.06
2023-03-12T17:28:53.646Z,28.31
2023-03-12T17:31:57.000Z,28.98
2023-03-12T17:35:06.732Z,29.28
2023-03-12T17:38:11.873Z,29.15
2023-03-12T17:44:34.793Z,30.26
2023-03-12T17:47:38.560Z,31.00
2023-03-12T17:50:45.074Z,31.12
2023-03-12T17:53:47.925Z,31.97
2023-03-12T17:56:50.101Z,31.81
2023-03-12T17:59:52.967Z,32.39
2023-03-12T18:02:56.023Z,32.47
2023-03-12T18:05:58.335Z,32.31
2023-03-12T18:09:00.544Z,32.81
2023-03-12T18:12:02.853Z,32.92
2023-03-12T18:15:06.477Z,34.33
2023-03-12T18:18:08.904Z,34.43
2023-03-12T18:21:11.264Z,34.39
2023-03-12T18:24:14.769Z,34.01
2023-03-12T18:27:17.405Z,34.91
2023-03-12T18:30:21.781Z,34.76
2023-03-12T18:33:23.961Z,34.04
2023-03-12T18:36:26.305Z,33.94
2023-03-12T18:39:28.991Z,34.06
2023-03-12T18:42:31.759Z,34.64
2023-03-12T18:45:34.744Z,35.37
2023-03-12T18:48:38.221Z,34.82
2023-03-12T18:51:40.387Z,34.85
2023-03-12T18:54:42.395Z,35.86
2023-03-12T18:57:48.078Z,36.37
2023-03-12T19:00:52.795Z,35.45
2023-03-12T19:03:56.604Z,35.71
2023-03-12T19:07:11.714Z,35.80
2023-03-12T19:10:21.658Z,35.83
2023-03-12T19:13:24.515Z,36.52
2023-03-12T19:16:29.020Z,36.26
2023-03-12T19:19:31.627Z,35.39
2023-03-12T19:22:34.320Z,36.39
2023-03-12T19:25:37.240Z,36.68
2023-03-12T19:28:42.349Z,36.64
2023-03-12T19:31:44.971Z,35.97
2023-03-12T19:34:52.327Z,36.74
2023-03-12T19:37:58.699Z,36.46
2023-03-12T19:41:03.781Z,37.04
2023-03-12T19:44:07.102Z,37.22
2023-03-12T19:47:11.027Z,37.32
2023-03-12T19:50:13.679Z,37.63
2023-03-12T19:53:17.861Z,37.46
2023-03-12T19:56:22.216Z,38.45
2023-03-12T19:59:24.919Z,38.99
2023-03-12T20:02:27.675Z,39.21
2023-03-12T20:05:30.877Z,39.42
2023-03-12T20:08:32.969Z,39.90
2023-03-12T20:11:38.109Z,40.44
2023-03-12T20:14:42.637Z,40.42
2023-03-12T20:17:48.347Z,40.49
2023-03-12T20:20:50.542Z,41.17
2023-03-12T20:23:58.578Z,41.58
2023-03-12T20:27:02.471Z,42.04
2023-03-12T20:30:05.651Z,42.63
2023-03-12T20:33:09.558Z,42.29
2023-03-12T20:36:14.242Z,42.40
2023-03-12T20:39:18.076Z,43.33
2023-03-12T20:42:20.833Z,43.42
2023-03-12T20:45:23.215Z,44.25
2023-03-12T20:48:26.624Z,44.10
2023-03-12T20:51:29.137Z,43.85
2023-03-12T20:54:35.091Z,43.78
2023-03-12T20:57:37.629Z,43.55
2023-03-12T21:00:44.329Z,44.51
2023-03-12T21:03:47.296Z,45.15
2023-03-12T21:06:51.871Z,45.32
2023-03-12T21:09:54.378Z,44.95
2023-03-12T21:12:58.016Z,45.15
2023-03-12T21:16:00.934Z,45.21
2023-03-12T21:19:04.628Z,45.61
2023-03-12T21:22:07.390Z,45.80
2023-03-12T21:25:11.640Z,45.15
2023-03-12T21:28:17.315Z,45.26
2023-03-12T21:31:19.909Z,45.45
2023-03-12T21:34:22.957Z,45.08
2023-03-12T21:37:28.649Z,44.12
2023-03-12T21:40:31.031Z,43.88
2023-03-12T21:43:33.483Z,44.19
2023-03-12T21:46:35.708Z,44.45
2023-03-12T21:49:38.030Z,44.47
2023-03-12T21:52:43.560Z,44.18
2023-03-12T21:55:55.278Z,44.68
2023-03-12T21:58:58.509Z,44.17
2023-03-12T22:02:00.605Z,45.63
2023-03-12T22:05:04.093Z,45.06
2023-03-12T22:08:07.595Z,44.77
2023-03-12T22:11:11.171Z,44.08
2023-03-12T22:14:13.058Z,43.83
2023-03-12T22:17:15.265Z,43.99
2023-03-12T22:20:17.529Z,44.20
2023-03-12T22:23:21.455Z,44.31
2023-03-12T22:26:25.256Z,44.59
2023-03-12T22:29:27.789Z,45.02
2023-03-12T22:32:30.517Z,45.28
2023-03-12T22:35:32.502Z,44.99
2023-03-12T22:38:36.729Z,44.91
2023-03-12T22:41:40.068Z,44.64
2023-03-12T22:44:42.976Z,44.36
2023-03-12T22:47:47.050Z,44.64
2023-03-12T22:50:54.179Z,44.56
2023-03-12T22:53:57.235Z,44.46
2023-03-12T22:56:59.574Z,44.17
2023-03-12T23:00:02.451Z,43.93
2023-03-12T23:03:05.146Z,44.43
2023-03-12T23:06:14.004Z,43.90
2023-03-12T23:09:16.284Z,44.90
2023-03-12T23:12:19.048Z,45.20
2023-03-12T23:15:24.515Z,44.52
2023-03-12T23:18:31.645Z,44.95
2023-03-12T23:21:33.786Z,44.84
2023-03-12T23:24:37.466Z,45.04
2023-03-12T23:27:39.424Z,44.64
2023-03-12T23:30:41.454Z,45.41
2023-03-12T23:33:44.001Z,45.68
2023-03-12T23:36:46.361Z,46.06
2023-03-12T23:39:54.499Z,46.23
2023-03-12T23:42:58.500Z,45.92
2023-03-12T23:46:03.505Z,46.25
2023-03-12T23:49:07.510Z,46.28
2023-03-12T23:52:09.819Z,46.59
2023-03-12T23:55:14.075Z,46.79
2023-03-12T23:58:16.172Z,46.67
